Airport ICAO


22:25 UTC

8°C

Clear skies


An affordable passengers' Moving Map for your aircraft. Made for the iPad and the iPhone
More information here

LFAT Paris Plage


Le Tourquet FRANCE   VFR CAVOK


METAR LFAT 132200Z AUTO 17004KT CAVOK 08/07 Q1028 0h25min

TAF LFAT 131400Z 1315/1324 24010KT 9999 BKN020 TEMPO 1315/1318 4000 SHRA BECMG 1318/1320 18007KT 8h25min





NOTAMS

OPEN